createdAt,value
2017-12-23T00:00:17.491Z,20.76
2017-12-23T00:00:47.488Z,20.75
2017-12-23T00:01:17.489Z,20.78
2017-12-23T00:01:47.486Z,20.75
2017-12-23T00:02:17.487Z,20.76
2017-12-23T00:02:47.494Z,20.75
2017-12-23T00:03:17.495Z,20.75
2017-12-23T00:03:47.499Z,20.78
2017-12-23T00:04:17.506Z,20.76
2017-12-23T00:04:47.505Z,20.76
2017-12-23T00:05:17.508Z,20.76
2017-12-23T00:05:47.502Z,20.78
2017-12-23T00:06:17.503Z,20.75
2017-12-23T00:06:47.509Z,20.75
2017-12-23T00:07:17.512Z,20.75
2017-12-23T00:07:47.511Z,20.78
2017-12-23T00:08:17.511Z,20.75
2017-12-23T00:08:47.516Z,20.76
2017-12-23T00:09:17.511Z,20.78
2017-12-23T00:09:47.518Z,20.76
2017-12-23T00:10:17.519Z,20.78
2017-12-23T00:10:47.527Z,20.75
2017-12-23T00:11:17.533Z,20.76
2017-12-23T00:11:47.518Z,20.75
2017-12-23T00:12:17.520Z,20.74
2017-12-23T00:12:47.521Z,20.75
2017-12-23T00:13:17.534Z,20.75
2017-12-23T00:13:47.531Z,20.75
2017-12-23T00:14:17.532Z,20.75
2017-12-23T00:14:47.533Z,20.75
2017-12-23T00:15:17.534Z,20.75
2017-12-23T00:15:47.548Z,20.75
2017-12-23T00:16:17.533Z,20.75
2017-12-23T00:16:47.518Z,20.76
2017-12-23T00:17:17.523Z,20.76
2017-12-23T00:17:47.525Z,20.74
2017-12-23T00:18:17.525Z,20.76
2017-12-23T00:18:47.524Z,20.76
2017-12-23T00:19:17.525Z,20.75
2017-12-23T00:19:47.532Z,20.74
2017-12-23T00:20:17.523Z,20.75
2017-12-23T00:20:47.526Z,20.76
2017-12-23T00:21:17.541Z,20.75
2017-12-23T00:21:47.529Z,20.74
2017-12-23T00:22:17.539Z,20.75
2017-12-23T00:22:47.537Z,20.75
2017-12-23T00:23:17.536Z,20.74
2017-12-23T00:23:47.536Z,20.76
2017-12-23T00:24:17.549Z,20.75
2017-12-23T00:24:47.540Z,20.75
2017-12-23T00:25:17.552Z,20.75
2017-12-23T00:25:47.547Z,20.75
2017-12-23T00:26:17.548Z,20.74
2017-12-23T00:26:47.550Z,20.75
2017-12-23T00:27:17.552Z,20.72
2017-12-23T00:27:47.561Z,20.75
2017-12-23T00:28:17.564Z,20.72
2017-12-23T00:28:47.554Z,20.74
2017-12-23T00:29:17.568Z,20.72
2017-12-23T00:29:47.560Z,20.76
2017-12-23T00:30:17.569Z,20.72
2017-12-23T00:30:47.565Z,20.75
2017-12-23T00:31:17.573Z,20.74
2017-12-23T00:31:47.567Z,20.75
2017-12-23T00:32:17.579Z,20.74
2017-12-23T00:32:47.573Z,20.74
2017-12-23T00:33:17.588Z,20.76
2017-12-23T00:33:47.579Z,20.72
2017-12-23T00:34:17.585Z,20.74
2017-12-23T00:34:47.576Z,20.75
2017-12-23T00:35:17.578Z,20.74
2017-12-23T00:35:47.589Z,20.74
2017-12-23T00:36:17.600Z,20.75
2017-12-23T00:36:47.585Z,20.75
2017-12-23T00:37:17.593Z,20.76
2017-12-23T00:37:47.588Z,20.74
2017-12-23T00:38:17.595Z,20.71
2017-12-23T00:38:47.598Z,20.72
2017-12-23T00:39:17.596Z,20.74
2017-12-23T00:39:47.601Z,20.74
2017-12-23T00:40:17.599Z,20.72
2017-12-23T00:40:47.608Z,20.74
2017-12-23T00:41:17.606Z,20.72
2017-12-23T00:41:47.607Z,20.75
2017-12-23T00:42:17.649Z,20.75
2017-12-23T00:42:47.611Z,20.75
2017-12-23T00:43:17.616Z,20.74
2017-12-23T00:43:47.611Z,20.72
2017-12-23T00:44:17.617Z,20.74
2017-12-23T00:44:47.628Z,20.74
2017-12-23T00:45:17.622Z,20.74
2017-12-23T00:45:47.633Z,20.74
2017-12-23T00:46:17.621Z,20.72
2017-12-23T00:46:47.626Z,20.72
2017-12-23T00:47:17.628Z,20.72
2017-12-23T00:47:47.626Z,20.72
2017-12-23T00:48:17.638Z,20.71
2017-12-23T00:48:47.636Z,20.74
2017-12-23T00:49:17.630Z,20.74
2017-12-23T00:49:47.637Z,20.71
2017-12-23T00:50:17.635Z,20.72
2017-12-23T00:50:47.643Z,20.72
2017-12-23T00:51:17.649Z,20.74
2017-12-23T00:51:47.640Z,20.74
2017-12-23T00:52:17.642Z,20.71
2017-12-23T00:52:47.656Z,20.71
2017-12-23T00:53:17.655Z,20.69
2017-12-23T00:53:47.655Z,20.72
2017-12-23T00:54:17.655Z,20.74
2017-12-23T00:54:47.651Z,20.72
2017-12-23T00:55:17.667Z,20.72
2017-12-23T00:55:47.668Z,20.74
2017-12-23T00:56:17.664Z,20.72
2017-12-23T00:56:47.666Z,20.72
2017-12-23T00:57:17.668Z,20.72
2017-12-23T00:57:47.676Z,20.72
2017-12-23T00:58:17.670Z,20.74
2017-12-23T00:58:47.675Z,20.74
2017-12-23T00:59:17.667Z,20.72
2017-12-23T00:59:47.681Z,20.71
2017-12-23T01:00:17.683Z,20.74
2017-12-23T01:00:47.673Z,20.72
2017-12-23T01:01:17.686Z,20.75
2017-12-23T01:01:47.696Z,20.72
2017-12-23T01:02:17.683Z,20.74
2017-12-23T01:02:47.689Z,20.69
2017-12-23T01:03:17.688Z,20.71
2017-12-23T01:03:47.690Z,20.71
2017-12-23T01:04:17.703Z,20.72
2017-12-23T01:04:47.696Z,20.71
2017-12-23T01:05:17.696Z,20.72
2017-12-23T01:05:47.705Z,20.74
2017-12-23T01:06:17.700Z,20.71
2017-12-23T01:06:47.708Z,20.71
2017-12-23T01:07:17.700Z,20.72
2017-12-23T01:07:47.707Z,20.71
2017-12-23T01:08:17.702Z,20.72
2017-12-23T01:08:47.707Z,20.74
2017-12-23T01:09:17.710Z,20.69
2017-12-23T01:09:47.710Z,20.72
2017-12-23T01:10:17.709Z,20.71
2017-12-23T01:10:47.714Z,20.69
2017-12-23T01:11:17.721Z,20.72
2017-12-23T01:11:47.714Z,20.71
2017-12-23T01:12:17.717Z,20.74
2017-12-23T01:12:47.733Z,20.74
2017-12-23T01:13:17.724Z,20.71
2017-12-23T01:13:47.725Z,20.74
2017-12-23T01:14:17.727Z,20.71
2017-12-23T01:14:47.794Z,20.69
2017-12-23T01:15:17.732Z,20.72
2017-12-23T01:15:47.750Z,20.72
2017-12-23T01:16:17.786Z,20.72
2017-12-23T01:16:47.736Z,20.74
2017-12-23T01:17:17.741Z,20.69
2017-12-23T01:17:47.739Z,20.72
2017-12-23T01:18:17.742Z,20.71
2017-12-23T01:18:47.744Z,20.71
2017-12-23T01:19:17.751Z,20.72
2017-12-23T01:19:47.745Z,20.71
2017-12-23T01:20:17.746Z,20.72
2017-12-23T01:20:47.759Z,20.72
2017-12-23T01:21:17.749Z,20.72
2017-12-23T01:21:47.750Z,20.71
2017-12-23T01:22:17.752Z,20.71
2017-12-23T01:22:47.759Z,20.69
2017-12-23T01:23:17.768Z,20.71
2017-12-23T01:23:47.757Z,20.69
2017-12-23T01:24:17.770Z,20.69
2017-12-23T01:24:47.767Z,20.71
2017-12-23T01:25:17.765Z,20.71
2017-12-23T01:25:47.767Z,20.69
2017-12-23T01:26:17.770Z,20.69
2017-12-23T01:26:47.769Z,20.69
2017-12-23T01:27:17.778Z,20.71
2017-12-23T01:27:47.784Z,20.71
2017-12-23T01:28:17.783Z,20.72
2017-12-23T01:28:47.786Z,20.69
2017-12-23T01:29:17.856Z,20.72
2017-12-23T01:29:47.784Z,20.69
2017-12-23T01:30:17.785Z,20.72
2017-12-23T01:30:47.794Z,20.71
2017-12-23T01:31:17.789Z,20.72
2017-12-23T01:31:47.788Z,20.72
2017-12-23T01:32:17.792Z,20.72
2017-12-23T01:32:47.797Z,20.71
2017-12-23T01:33:17.865Z,20.71
2017-12-23T01:33:47.793Z,20.68
2017-12-23T01:34:17.807Z,20.72
2017-12-23T01:34:47.808Z,20.71
2017-12-23T01:35:17.808Z,20.71
2017-12-23T01:35:47.801Z,20.71
2017-12-23T01:36:17.809Z,20.71
2017-12-23T01:36:47.815Z,20.71
2017-12-23T01:37:17.811Z,20.69
2017-12-23T01:37:47.820Z,20.68
2017-12-23T01:38:17.812Z,20.68
2017-12-23T01:38:47.812Z,20.71
2017-12-23T01:39:17.816Z,20.69
2017-12-23T01:39:47.815Z,20.68
2017-12-23T01:40:17.825Z,20.69
2017-12-23T01:40:47.818Z,20.69
2017-12-23T01:41:17.823Z,20.72
2017-12-23T01:41:47.834Z,20.71
2017-12-23T01:42:17.834Z,20.68
2017-12-23T01:42:47.836Z,20.71
2017-12-23T01:43:17.838Z,20.74
2017-12-23T01:43:47.837Z,20.71
2017-12-23T01:44:17.841Z,20.69
2017-12-23T01:44:47.843Z,20.69
2017-12-23T01:45:17.838Z,20.71
2017-12-23T01:45:47.834Z,20.71
2017-12-23T01:46:17.846Z,20.71
2017-12-23T01:46:47.839Z,20.71
2017-12-23T01:47:17.846Z,20.69
2017-12-23T01:47:47.844Z,20.69
2017-12-23T01:48:17.860Z,20.68
2017-12-23T01:48:47.850Z,20.69
2017-12-23T01:49:17.860Z,20.71
2017-12-23T01:49:47.853Z,20.68
2017-12-23T01:50:17.862Z,20.69
2017-12-23T01:50:47.859Z,20.67
2017-12-23T01:51:17.859Z,20.69
2017-12-23T01:51:47.860Z,20.71
2017-12-23T01:52:17.859Z,20.67
2017-12-23T01:52:47.862Z,20.69
2017-12-23T01:53:17.867Z,20.69
2017-12-23T01:53:47.871Z,20.68
2017-12-23T01:54:17.879Z,20.69
2017-12-23T01:54:47.878Z,20.68
2017-12-23T01:55:17.869Z,20.68
2017-12-23T01:55:47.877Z,20.68
2017-12-23T01:56:17.875Z,20.69
2017-12-23T01:56:47.875Z,20.72
2017-12-23T01:57:17.882Z,20.71
2017-12-23T01:57:47.888Z,20.69
2017-12-23T01:58:17.885Z,20.72
2017-12-23T01:58:47.888Z,20.69
2017-12-23T01:59:17.885Z,20.67
2017-12-23T01:59:47.890Z,20.68
2017-12-23T02:00:17.897Z,20.68
2017-12-23T02:00:47.894Z,20.69
2017-12-23T02:01:17.895Z,20.69
2017-12-23T02:01:47.901Z,20.68
2017-12-23T02:02:17.903Z,20.68
2017-12-23T02:02:47.899Z,20.68
2017-12-23T02:03:17.907Z,20.71
2017-12-23T02:03:47.902Z,20.67
2017-12-23T02:04:17.906Z,20.69
2017-12-23T02:04:47.914Z,20.68
2017-12-23T02:05:17.906Z,20.68
2017-12-23T02:05:47.911Z,20.68
2017-12-23T02:06:17.904Z,20.69
2017-12-23T02:06:47.919Z,20.67
2017-12-23T02:07:17.918Z,20.69
2017-12-23T02:07:47.917Z,20.69
2017-12-23T02:08:17.919Z,20.71
2017-12-23T02:08:47.945Z,20.69
2017-12-23T02:09:17.917Z,20.71
2017-12-23T02:09:47.917Z,20.71
2017-12-23T02:10:17.980Z,20.68
2017-12-23T02:10:47.926Z,20.69
2017-12-23T02:11:17.925Z,20.68
2017-12-23T02:11:47.925Z,20.68
2017-12-23T02:12:18.002Z,20.67
2017-12-23T02:12:47.933Z,20.67
2017-12-23T02:13:17.941Z,20.69
2017-12-23T02:13:47.932Z,20.67
2017-12-23T02:14:17.942Z,20.65
2017-12-23T02:14:47.935Z,20.68
2017-12-23T02:15:17.946Z,20.67
2017-12-23T02:15:47.948Z,20.68
2017-12-23T02:16:18.006Z,20.67
2017-12-23T02:16:47.951Z,20.69
2017-12-23T02:17:17.952Z,20.69
2017-12-23T02:17:47.954Z,20.68
2017-12-23T02:18:17.956Z,20.68
2017-12-23T02:18:47.946Z,20.67
2017-12-23T02:19:17.982Z,20.65
2017-12-23T02:19:47.964Z,20.67
2017-12-23T02:20:17.954Z,20.68
2017-12-23T02:20:47.956Z,20.68
2017-12-23T02:21:17.962Z,20.68
2017-12-23T02:21:47.959Z,20.68
2017-12-23T02:22:17.961Z,20.68
2017-12-23T02:22:47.964Z,20.68
2017-12-23T02:23:17.965Z,20.68
2017-12-23T02:23:47.969Z,20.68
2017-12-23T02:24:17.972Z,20.68
2017-12-23T02:24:47.967Z,20.68
2017-12-23T02:25:17.978Z,20.69
2017-12-23T02:25:47.975Z,20.69
2017-12-23T02:26:17.986Z,20.68
2017-12-23T02:26:47.972Z,20.67
2017-12-23T02:27:17.980Z,20.68
2017-12-23T02:27:47.978Z,20.69
2017-12-23T02:28:17.981Z,20.67
2017-12-23T02:28:47.994Z,20.68
2017-12-23T02:29:17.981Z,20.68
2017-12-23T02:29:47.987Z,20.68
2017-12-23T02:30:17.997Z,20.71
2017-12-23T02:30:47.999Z,20.68
2017-12-23T02:31:17.994Z,20.68
2017-12-23T02:31:47.994Z,20.67
2017-12-23T02:32:18.052Z,20.67
2017-12-23T02:32:47.992Z,20.68
2017-12-23T02:33:17.999Z,20.67
2017-12-23T02:33:48.001Z,20.68
2017-12-23T02:34:18.058Z,20.69
2017-12-23T02:34:48.012Z,20.69
2017-12-23T02:35:18.002Z,20.68
2017-12-23T02:35:48.013Z,20.67
2017-12-23T02:36:18.007Z,20.69
2017-12-23T02:36:48.016Z,20.68
2017-12-23T02:37:18.018Z,20.65
2017-12-23T02:37:48.018Z,20.67
2017-12-23T02:38:18.009Z,20.68
2017-12-23T02:38:48.016Z,20.67
2017-12-23T02:39:18.015Z,20.67
2017-12-23T02:39:48.021Z,20.67
2017-12-23T02:40:18.019Z,20.67
2017-12-23T02:40:48.030Z,20.68
2017-12-23T02:41:18.024Z,20.65
2017-12-23T02:41:48.029Z,20.68
2017-12-23T02:42:18.029Z,20.68
2017-12-23T02:42:48.032Z,20.68
2017-12-23T02:43:18.030Z,20.68
2017-12-23T02:43:48.031Z,20.67
2017-12-23T02:44:18.041Z,20.68
2017-12-23T02:44:48.063Z,20.68
2017-12-23T02:45:18.042Z,20.67
2017-12-23T02:45:48.042Z,20.67
2017-12-23T02:46:18.050Z,20.68
2017-12-23T02:46:48.052Z,20.67
2017-12-23T02:47:18.047Z,20.68
2017-12-23T02:47:48.046Z,20.65
2017-12-23T02:48:18.049Z,20.67
2017-12-23T02:48:48.052Z,20.67
2017-12-23T02:49:18.045Z,20.67
2017-12-23T02:49:48.058Z,20.67
2017-12-23T02:50:18.056Z,20.67
2017-12-23T02:50:48.057Z,20.67
2017-12-23T02:51:18.059Z,20.68
2017-12-23T02:51:48.058Z,20.67
2017-12-23T02:52:18.059Z,20.67
2017-12-23T02:52:48.058Z,20.65
2017-12-23T02:53:18.061Z,20.67
2017-12-23T02:53:48.067Z,20.67
2017-12-23T02:54:18.078Z,20.69
2017-12-23T02:54:48.076Z,20.63
2017-12-23T02:55:18.066Z,20.67
2017-12-23T02:55:48.073Z,20.65
2017-12-23T02:56:18.069Z,20.63
2017-12-23T02:56:48.076Z,20.67
2017-12-23T02:57:18.083Z,20.68
2017-12-23T02:57:48.091Z,20.63
2017-12-23T02:58:18.082Z,20.67
2017-12-23T02:58:48.084Z,20.65
2017-12-23T02:59:18.088Z,20.65
2017-12-23T02:59:48.100Z,20.65
2017-12-23T03:00:18.086Z,20.67
2017-12-23T03:00:48.106Z,20.65
2017-12-23T03:01:18.093Z,20.68
2017-12-23T03:01:48.087Z,20.69
2017-12-23T03:02:18.092Z,20.67
2017-12-23T03:02:48.091Z,20.65
2017-12-23T03:03:18.095Z,20.67
2017-12-23T03:03:48.094Z,20.65
2017-12-23T03:04:18.105Z,20.63
2017-12-23T03:04:48.104Z,20.65
2017-12-23T03:05:18.102Z,20.67
2017-12-23T03:05:48.104Z,20.67
2017-12-23T03:06:18.105Z,20.65
2017-12-23T03:06:48.117Z,20.67
2017-12-23T03:07:18.110Z,20.68
2017-12-23T03:07:48.111Z,20.67
2017-12-23T03:08:18.114Z,20.67
2017-12-23T03:08:48.117Z,20.65
2017-12-23T03:09:18.113Z,20.67
2017-12-23T03:09:48.119Z,20.65
2017-12-23T03:10:18.115Z,20.65
2017-12-23T03:10:48.121Z,20.68
2017-12-23T03:11:18.170Z,20.67
2017-12-23T03:11:48.126Z,20.67
2017-12-23T03:12:18.129Z,20.67
2017-12-23T03:12:48.129Z,20.67
2017-12-23T03:13:18.124Z,20.68
2017-12-23T03:13:48.128Z,20.67
2017-12-23T03:14:18.133Z,20.67
2017-12-23T03:14:48.138Z,20.67
2017-12-23T03:15:18.145Z,20.65
2017-12-23T03:15:48.134Z,20.67
2017-12-23T03:16:18.141Z,20.68
2017-12-23T03:16:48.141Z,20.67
2017-12-23T03:17:18.143Z,20.67
2017-12-23T03:17:48.140Z,20.65
2017-12-23T03:18:18.139Z,20.65
2017-12-23T03:18:48.143Z,20.65
2017-12-23T03:19:18.154Z,20.65
2017-12-23T03:19:48.150Z,20.68
2017-12-23T03:20:18.155Z,20.65
2017-12-23T03:20:48.158Z,20.67
2017-12-23T03:21:18.153Z,20.67
2017-12-23T03:21:48.152Z,20.63
2017-12-23T03:22:18.150Z,20.63
2017-12-23T03:22:48.216Z,20.65
2017-12-23T03:23:18.154Z,20.63
2017-12-23T03:23:48.252Z,20.65
2017-12-23T03:24:18.175Z,20.67
2017-12-23T03:24:48.167Z,20.65
2017-12-23T03:25:18.166Z,20.68
2017-12-23T03:25:48.172Z,20.63
2017-12-23T03:26:18.166Z,20.63
2017-12-23T03:26:48.172Z,20.65
2017-12-23T03:27:18.166Z,20.68
2017-12-23T03:27:48.171Z,20.65
2017-12-23T03:28:18.170Z,20.65
2017-12-23T03:28:48.187Z,20.67
2017-12-23T03:29:18.181Z,20.65
2017-12-23T03:29:48.183Z,20.65
2017-12-23T03:30:18.195Z,20.63
2017-12-23T03:30:48.183Z,20.67
2017-12-23T03:31:18.190Z,20.65
2017-12-23T03:31:48.188Z,20.63
2017-12-23T03:32:18.189Z,20.67
2017-12-23T03:32:48.183Z,20.63
2017-12-23T03:33:18.190Z,20.63
2017-12-23T03:33:48.191Z,20.65
2017-12-23T03:34:18.191Z,20.65
2017-12-23T03:34:48.250Z,20.63
2017-12-23T03:35:18.189Z,20.65
2017-12-23T03:35:48.198Z,20.63
2017-12-23T03:36:18.200Z,20.63
2017-12-23T03:36:48.198Z,20.65
2017-12-23T03:37:18.204Z,20.63
2017-12-23T03:37:48.209Z,20.67
2017-12-23T03:38:18.207Z,20.63
2017-12-23T03:38:48.204Z,20.62
2017-12-23T03:39:18.207Z,20.67
2017-12-23T03:39:48.212Z,20.63
2017-12-23T03:40:18.217Z,20.68
2017-12-23T03:40:48.208Z,20.63
2017-12-23T03:41:18.213Z,20.67
2017-12-23T03:41:48.209Z,20.65
2017-12-23T03:42:18.212Z,20.67
2017-12-23T03:42:48.220Z,20.65
2017-12-23T03:43:18.224Z,20.65
2017-12-23T03:43:48.223Z,20.65
2017-12-23T03:44:18.221Z,20.65
2017-12-23T03:44:48.220Z,20.63
2017-12-23T03:45:18.220Z,20.63
2017-12-23T03:45:48.226Z,20.63
2017-12-23T03:46:18.234Z,20.65
2017-12-23T03:46:48.229Z,20.67
2017-12-23T03:47:18.233Z,20.65
2017-12-23T03:47:48.230Z,20.65
2017-12-23T03:48:18.241Z,20.65
2017-12-23T03:48:48.238Z,20.67
2017-12-23T03:49:18.237Z,20.67
2017-12-23T03:49:48.234Z,20.67
2017-12-23T03:50:18.237Z,20.65
2017-12-23T03:50:48.242Z,20.63
2017-12-23T03:51:18.243Z,20.67
2017-12-23T03:51:48.241Z,20.65
2017-12-23T03:52:18.246Z,20.67
2017-12-23T03:52:48.254Z,20.63
2017-12-23T03:53:18.270Z,20.63
2017-12-23T03:53:48.252Z,20.65
2017-12-23T03:54:18.253Z,20.63
2017-12-23T03:54:48.253Z,20.63
2017-12-23T03:55:18.266Z,20.65
2017-12-23T03:55:48.251Z,20.65
2017-12-23T03:56:18.256Z,20.63
2017-12-23T03:56:48.261Z,20.67
2017-12-23T03:57:18.265Z,20.63
2017-12-23T03:57:48.270Z,20.65
2017-12-23T03:58:18.260Z,20.62
2017-12-23T03:58:48.267Z,20.63
2017-12-23T03:59:18.266Z,20.65
2017-12-23T03:59:48.263Z,20.65
2017-12-23T04:00:18.272Z,20.63
2017-12-23T04:00:48.289Z,20.65
2017-12-23T04:01:18.272Z,20.63
2017-12-23T04:01:48.272Z,20.65
2017-12-23T04:02:18.275Z,20.63
2017-12-23T04:02:48.278Z,20.63
2017-12-23T04:03:18.284Z,20.63
2017-12-23T04:03:48.279Z,20.62
2017-12-23T04:04:18.283Z,20.65
2017-12-23T04:04:48.284Z,20.67
2017-12-23T04:05:18.288Z,20.65
2017-12-23T04:05:48.285Z,20.65
2017-12-23T04:06:18.290Z,20.63
2017-12-23T04:06:48.312Z,20.67
2017-12-23T04:07:18.290Z,20.65
2017-12-23T04:07:48.297Z,20.65
2017-12-23T04:08:18.292Z,20.63
2017-12-23T04:08:48.297Z,20.67
2017-12-23T04:09:18.296Z,20.62
2017-12-23T04:09:48.297Z,20.65
2017-12-23T04:10:18.297Z,20.65
2017-12-23T04:10:48.311Z,20.65
2017-12-23T04:11:18.304Z,20.62
2017-12-23T04:11:48.311Z,20.62
2017-12-23T04:12:18.312Z,20.62
2017-12-23T04:12:48.308Z,20.65
2017-12-23T04:13:18.309Z,20.65
2017-12-23T04:13:48.308Z,20.65
2017-12-23T04:14:18.305Z,20.65
2017-12-23T04:14:48.312Z,20.63
2017-12-23T04:15:18.318Z,20.65
2017-12-23T04:15:48.314Z,20.63
2017-12-23T04:16:18.317Z,20.63
2017-12-23T04:16:48.313Z,20.65
2017-12-23T04:17:18.315Z,20.63
2017-12-23T04:17:48.364Z,20.65
2017-12-23T04:18:18.322Z,20.62
2017-12-23T04:18:48.324Z,20.62
2017-12-23T04:19:18.327Z,20.65
2017-12-23T04:19:48.327Z,20.63
2017-12-23T04:20:18.330Z,20.63
2017-12-23T04:20:48.330Z,20.63
2017-12-23T04:21:18.337Z,20.67
2017-12-23T04:21:48.334Z,20.65
2017-12-23T04:22:18.335Z,20.62
2017-12-23T04:22:48.331Z,20.68
2017-12-23T04:23:18.338Z,20.62
2017-12-23T04:23:48.339Z,20.63
2017-12-23T04:24:18.342Z,20.62
2017-12-23T04:24:48.424Z,20.63
2017-12-23T04:25:18.343Z,20.62
2017-12-23T04:25:48.349Z,20.62
2017-12-23T04:26:18.345Z,20.62
2017-12-23T04:26:48.354Z,20.67
2017-12-23T04:27:18.350Z,20.65
2017-12-23T04:27:48.360Z,20.63
2017-12-23T04:28:18.354Z,20.65
2017-12-23T04:28:48.351Z,20.65
2017-12-23T04:29:18.350Z,20.63
2017-12-23T04:29:48.355Z,20.62
2017-12-23T04:30:18.358Z,20.65
2017-12-23T04:30:48.364Z,20.62
2017-12-23T04:31:18.355Z,20.63
2017-12-23T04:31:48.361Z,20.63
2017-12-23T04:32:18.363Z,20.63
2017-12-23T04:32:48.366Z,20.63
2017-12-23T04:33:18.365Z,20.65
2017-12-23T04:33:48.366Z,20.63
2017-12-23T04:34:18.366Z,20.65
2017-12-23T04:34:48.371Z,20.65
2017-12-23T04:35:18.414Z,20.63
2017-12-23T04:35:48.380Z,20.65
2017-12-23T04:36:18.372Z,20.62
2017-12-23T04:36:48.375Z,20.63
2017-12-23T04:37:18.373Z,20.65
2017-12-23T04:37:48.378Z,20.63
2017-12-23T04:38:18.378Z,20.63
2017-12-23T04:38:48.383Z,20.63
2017-12-23T04:39:18.385Z,20.63
2017-12-23T04:39:48.385Z,20.63
2017-12-23T04:40:18.389Z,20.63
2017-12-23T04:40:48.395Z,20.63
2017-12-23T04:41:18.393Z,20.61
2017-12-23T04:41:48.399Z,20.65
2017-12-23T04:42:18.387Z,20.62
2017-12-23T04:42:48.388Z,20.65
2017-12-23T04:43:18.390Z,20.65
2017-12-23T04:43:48.397Z,20.65
2017-12-23T04:44:18.403Z,20.63
2017-12-23T04:44:48.396Z,20.65
2017-12-23T04:45:18.399Z,20.65
2017-12-23T04:45:48.402Z,20.65
2017-12-23T04:46:18.411Z,20.63
2017-12-23T04:46:48.400Z,20.61
2017-12-23T04:47:18.400Z,20.63
2017-12-23T04:47:48.403Z,20.63
2017-12-23T04:48:18.406Z,20.63
2017-12-23T04:48:48.410Z,20.63
2017-12-23T04:49:18.442Z,20.63
2017-12-23T04:49:48.418Z,20.63
2017-12-23T04:50:18.474Z,20.67
2017-12-23T04:50:48.412Z,20.63
2017-12-23T04:51:18.417Z,20.63
2017-12-23T04:51:48.419Z,20.63
2017-12-23T04:52:18.418Z,20.65
2017-12-23T04:52:48.417Z,20.63
2017-12-23T04:53:18.429Z,20.63
2017-12-23T04:53:48.425Z,20.63
2017-12-23T04:54:18.438Z,20.63
2017-12-23T04:54:48.425Z,20.63
2017-12-23T04:55:18.425Z,20.63
2017-12-23T04:55:48.443Z,20.61
2017-12-23T04:56:18.439Z,20.63
2017-12-23T04:56:48.433Z,20.62
2017-12-23T04:57:18.434Z,20.63
2017-12-23T04:57:48.439Z,20.63
2017-12-23T04:58:18.439Z,20.62
2017-12-23T04:58:48.440Z,20.62
2017-12-23T04:59:18.441Z,20.63
2017-12-23T04:59:48.442Z,20.62
2017-12-23T05:00:18.474Z,20.62
2017-12-23T05:00:48.447Z,20.63
2017-12-23T05:01:18.451Z,20.63
2017-12-23T05:01:48.445Z,20.62
2017-12-23T05:02:18.454Z,20.62
2017-12-23T05:02:48.451Z,20.62
2017-12-23T05:03:18.449Z,20.63
2017-12-23T05:03:48.450Z,20.65
2017-12-23T05:04:18.460Z,20.62
2017-12-23T05:04:48.454Z,20.63
2017-12-23T05:05:18.460Z,20.63
2017-12-23T05:05:48.462Z,20.61
2017-12-23T05:06:18.469Z,20.59
2017-12-23T05:06:48.470Z,20.62
2017-12-23T05:07:18.471Z,20.65
2017-12-23T05:07:48.475Z,20.63
2017-12-23T05:08:18.475Z,20.63
2017-12-23T05:08:48.470Z,20.63
2017-12-23T05:09:18.471Z,20.61
2017-12-23T05:09:48.476Z,20.61
2017-12-23T05:10:18.488Z,20.62
2017-12-23T05:10:48.471Z,20.59
2017-12-23T05:11:18.477Z,20.62
2017-12-23T05:11:48.480Z,20.63
2017-12-23T05:12:18.485Z,20.61
2017-12-23T05:12:48.480Z,20.65
2017-12-23T05:13:18.489Z,20.63
2017-12-23T05:13:48.485Z,20.62
2017-12-23T05:14:18.488Z,20.62
2017-12-23T05:14:48.484Z,20.65
2017-12-23T05:15:18.491Z,20.62
2017-12-23T05:15:48.488Z,20.63
2017-12-23T05:16:18.496Z,20.63
2017-12-23T05:16:48.493Z,20.63
2017-12-23T05:17:18.490Z,20.63
2017-12-23T05:17:48.492Z,20.62
2017-12-23T05:18:18.499Z,20.63
2017-12-23T05:18:48.501Z,20.62
2017-12-23T05:19:18.516Z,20.62
2017-12-23T05:19:48.507Z,20.62
2017-12-23T05:20:18.511Z,20.61
2017-12-23T05:20:48.504Z,20.63
2017-12-23T05:21:18.508Z,20.61
2017-12-23T05:21:48.513Z,20.63
2017-12-23T05:22:18.515Z,20.63
2017-12-23T05:22:48.514Z,20.62
2017-12-23T05:23:18.509Z,20.62
2017-12-23T05:23:48.510Z,20.62
2017-12-23T05:24:18.515Z,20.63
2017-12-23T05:24:48.525Z,20.63
2017-12-23T05:25:18.526Z,20.62
2017-12-23T05:25:48.527Z,20.59
2017-12-23T05:26:18.523Z,20.62
2017-12-23T05:26:48.525Z,20.61
2017-12-23T05:27:18.523Z,20.62
2017-12-23T05:27:48.527Z,20.62
2017-12-23T05:28:18.571Z,20.63
2017-12-23T05:28:48.538Z,20.62
2017-12-23T05:29:18.526Z,20.61
2017-12-23T05:29:48.539Z,20.62
2017-12-23T05:30:18.540Z,20.62
2017-12-23T05:30:48.533Z,20.62
2017-12-23T05:31:18.538Z,20.62
2017-12-23T05:31:48.542Z,20.61
2017-12-23T05:32:18.540Z,20.59
2017-12-23T05:32:48.541Z,20.62
2017-12-23T05:33:18.545Z,20.62
2017-12-23T05:33:48.544Z,20.61
2017-12-23T05:34:18.551Z,20.63
2017-12-23T05:34:48.555Z,20.61
2017-12-23T05:35:18.551Z,20.62
2017-12-23T05:35:48.557Z,20.65
2017-12-23T05:36:18.551Z,20.62
2017-12-23T05:36:48.556Z,20.62
2017-12-23T05:37:18.555Z,20.63
2017-12-23T05:37:48.557Z,20.62
2017-12-23T05:38:18.564Z,20.65
2017-12-23T05:38:48.562Z,20.61
2017-12-23T05:39:18.567Z,20.61
2017-12-23T05:39:48.559Z,20.62
2017-12-23T05:40:18.568Z,20.62
2017-12-23T05:40:48.564Z,20.61
2017-12-23T05:41:18.561Z,20.65
2017-12-23T05:41:48.566Z,20.59
2017-12-23T05:42:18.577Z,20.61
2017-12-23T05:42:48.570Z,20.62
2017-12-23T05:43:18.581Z,20.61
2017-12-23T05:43:48.574Z,20.62
2017-12-23T05:44:18.577Z,20.62
2017-12-23T05:44:48.576Z,20.62
2017-12-23T05:45:18.578Z,20.61
2017-12-23T05:45:48.578Z,20.61
2017-12-23T05:46:18.581Z,20.61
2017-12-23T05:46:48.585Z,20.62
2017-12-23T05:47:18.581Z,20.61
2017-12-23T05:47:48.590Z,20.61
2017-12-23T05:48:18.587Z,20.59
2017-12-23T05:48:48.590Z,20.61
2017-12-23T05:49:18.587Z,20.62
2017-12-23T05:49:48.587Z,20.59
2017-12-23T05:50:18.593Z,20.62
2017-12-23T05:50:48.596Z,20.59
2017-12-23T05:51:18.594Z,20.61
2017-12-23T05:51:48.602Z,20.63
2017-12-23T05:52:18.600Z,20.61
2017-12-23T05:52:48.602Z,20.62
2017-12-23T05:53:18.610Z,20.61
2017-12-23T05:53:48.606Z,20.61
2017-12-23T05:54:18.603Z,20.62
2017-12-23T05:54:48.614Z,20.61
2017-12-23T05:55:18.618Z,20.61
2017-12-23T05:55:48.614Z,20.61
2017-12-23T05:56:18.622Z,20.61
2017-12-23T05:56:48.611Z,20.61
2017-12-23T05:57:18.617Z,20.62
2017-12-23T05:57:48.614Z,20.62
2017-12-23T05:58:18.618Z,20.61
2017-12-23T05:58:48.616Z,20.62
2017-12-23T05:59:18.627Z,20.58
2017-12-23T05:59:48.618Z,20.63
2017-12-23T06:00:18.621Z,20.62
2017-12-23T06:00:48.630Z,20.61
2017-12-23T06:01:18.631Z,20.61
2017-12-23T06:01:48.630Z,20.59
2017-12-23T06:02:18.632Z,20.62
2017-12-23T06:02:48.629Z,20.62
2017-12-23T06:03:18.634Z,20.62
2017-12-23T06:03:48.636Z,20.62
2017-12-23T06:04:18.642Z,20.61
2017-12-23T06:04:48.669Z,20.63
2017-12-23T06:05:18.646Z,20.62
2017-12-23T06:05:48.649Z,20.61
2017-12-23T06:06:18.651Z,20.61
2017-12-23T06:06:48.643Z,20.62
2017-12-23T06:07:18.644Z,20.63
2017-12-23T06:07:48.650Z,20.62
2017-12-23T06:08:18.645Z,20.62
2017-12-23T06:08:48.647Z,20.61
2017-12-23T06:09:18.659Z,20.59
2017-12-23T06:09:48.652Z,20.62
2017-12-23T06:10:18.656Z,20.59
2017-12-23T06:10:48.661Z,20.63
2017-12-23T06:11:18.655Z,20.63
2017-12-23T06:11:48.659Z,20.59
2017-12-23T06:12:18.661Z,20.62
2017-12-23T06:12:48.667Z,20.61
2017-12-23T06:13:18.665Z,20.63
2017-12-23T06:13:48.665Z,20.61
2017-12-23T06:14:18.669Z,20.59
2017-12-23T06:14:48.669Z,20.62
2017-12-23T06:15:18.676Z,20.62
2017-12-23T06:15:48.681Z,20.62
2017-12-23T06:16:18.670Z,20.63
2017-12-23T06:16:48.676Z,20.59
2017-12-23T06:17:18.687Z,20.61
2017-12-23T06:17:48.673Z,20.59
2017-12-23T06:18:18.688Z,20.61
2017-12-23T06:18:48.681Z,20.62
2017-12-23T06:19:18.679Z,20.61
2017-12-23T06:19:48.692Z,20.59
2017-12-23T06:20:18.686Z,20.61
2017-12-23T06:20:48.688Z,20.59
2017-12-23T06:21:18.684Z,20.59
2017-12-23T06:21:48.689Z,20.59
2017-12-23T06:22:18.697Z,20.61
2017-12-23T06:22:48.689Z,20.59
2017-12-23T06:23:18.703Z,20.61
2017-12-23T06:23:48.697Z,20.59
2017-12-23T06:24:18.707Z,20.56
2017-12-23T06:24:48.698Z,20.61
2017-12-23T06:25:18.697Z,20.61
2017-12-23T06:25:48.701Z,20.59
2017-12-23T06:26:18.704Z,20.61